Time;durP1;ratioP1;P1;durP2;ratioP2;P2;SDS_P1;SDS_P2;PMS_P1;PMS_P2;Temp;Humidity;BMP_temperature;BMP_pressure;BME280_temperature;BME280_humidity;BME280_pressure;Samples;Min_cycle;Max_cycle;Signal;HPM_P1;HPM_P2
2024/01/12 00:00:28;;;;;;;1999.90;999.90;;;1.20;99.90;;;;;;5011692;28;20230;-75
2024/01/12 00:02:53;;;;;;;1999.90;999.90;;;0.90;99.90;;;;;;5012061;28;20260;-75
2024/01/12 00:05:19;;;;;;;1999.90;999.90;;;0.90;99.90;;;;;;5011816;28;20193;-75
2024/01/12 00:07:44;;;;;;;1999.90;999.90;;;0.90;99.90;;;;;;5012056;28;20177;-75
2024/01/12 00:10:10;;;;;;;1999.90;999.90;;;1.00;99.90;;;;;;5012009;28;20196;-75
2024/01/12 00:12:36;;;;;;;1999.90;999.90;;;0.90;99.90;;;;;;5011981;28;20240;-75
2024/01/12 00:15:03;;;;;;;1999.90;999.90;;;1.20;99.90;;;;;;5011806;28;20684;-75
2024/01/12 00:17:28;;;;;;;1999.90;999.90;;;1.00;99.90;;;;;;5012006;28;20240;-75
2024/01/12 00:19:55;;;;;;;1999.90;999.90;;;0.80;99.90;;;;;;5011928;28;20200;-75
2024/01/12 00:22:20;;;;;;;1999.90;999.90;;;1.10;99.90;;;;;;5011900;28;20719;-75
2024/01/12 00:24:46;;;;;;;1999.90;999.90;;;1.10;99.90;;;;;;5011587;28;20193;-75
2024/01/12 00:27:12;;;;;;;1999.90;999.90;;;0.90;99.90;;;;;;5011836;28;20185;-75
2024/01/12 00:29:37;;;;;;;1999.90;999.90;;;0.80;99.90;;;;;;5011764;28;20452;-75
2024/01/12 00:32:05;;;;;;;1999.90;999.90;;;0.70;99.90;;;;;;5011819;28;20543;-75
2024/01/12 00:34:31;;;;;;;1999.90;999.90;;;0.60;99.90;;;;;;5011385;28;20201;-75
2024/01/12 00:36:57;;;;;;;1999.90;999.90;;;0.60;99.90;;;;;;5011719;28;20172;-75
2024/01/12 00:39:22;;;;;;;1999.90;999.90;;;0.60;99.90;;;;;;5011830;28;20407;-75
2024/01/12 00:41:50;;;;;;;1999.90;999.90;;;0.60;99.90;;;;;;5011734;28;20173;-75
2024/01/12 00:44:18;;;;;;;1999.90;999.90;;;0.70;99.90;;;;;;5011524;28;20185;-75
2024/01/12 00:46:44;;;;;;;1999.90;999.90;;;0.80;99.90;;;;;;5011650;28;20173;-75
2024/01/12 00:49:10;;;;;;;1999.90;999.90;;;0.60;99.90;;;;;;5011602;28;20173;-75
2024/01/12 00:51:36;;;;;;;1999.90;999.90;;;0.80;99.90;;;;;;5011623;28;20173;-75
2024/01/12 00:54:02;;;;;;;1999.90;999.90;;;0.80;99.90;;;;;;5011399;28;20189;-75
2024/01/12 00:56:28;;;;;;;1999.90;999.90;;;0.80;99.90;;;;;;5011626;28;20698;-75
2024/01/12 00:58:53;;;;;;;1999.90;999.90;;;0.70;99.90;;;;;;5011567;28;20277;-75
2024/01/12 01:01:20;;;;;;;1999.90;999.90;;;;;;;;;;5010451;28;20200;-75
2024/01/12 01:03:46;;;;;;;1999.90;999.90;;;0.80;99.90;;;;;;5011222;28;20185;-75
2024/01/12 01:06:12;;;;;;;1999.90;999.90;;;0.90;99.90;;;;;;5011474;28;20211;-75
2024/01/12 01:08:38;;;;;;;1999.90;999.90;;;1.00;99.90;;;;;;5011539;28;20177;-75
2024/01/12 01:11:03;;;;;;;1999.90;999.90;;;0.90;99.90;;;;;;5013497;28;20204;-75
2024/01/12 01:13:29;;;;;;;1999.90;999.90;;;0.90;99.90;;;;;;5014708;28;20185;-75
2024/01/12 01:15:55;;;;;;;1999.90;999.90;;;0.80;99.90;;;;;;5014988;28;20176;-75
2024/01/12 01:18:20;;;;;;;1999.90;999.90;;;0.80;99.90;;;;;;5014940;28;20178;-75
2024/01/12 01:20:46;;;;;;;1999.90;999.90;;;0.90;99.90;;;;;;5014781;28;20528;-75
2024/01/12 01:23:11;;;;;;;1999.90;999.90;;;1.00;99.90;;;;;;5014808;28;20256;-75
2024/01/12 01:25:37;;;;;;;1999.90;999.90;;;0.90;99.90;;;;;;5014603;28;20256;-75
2024/01/12 01:28:03;;;;;;;1999.90;999.90;;;1.00;99.90;;;;;;5014745;28;20173;-75
2024/01/12 01:30:29;;;;;;;1999.90;999.90;;;0.90;99.90;;;;;;5014630;28;20263;-75
2024/01/12 01:32:54;;;;;;;1999.90;999.90;;;0.90;99.90;;;;;;5014562;28;20404;-75
2024/01/12 01:35:20;;;;;;;1999.90;999.90;;;0.90;99.90;;;;;;5014203;28;20737;-75
2024/01/12 01:37:45;;;;;;;1999.90;999.90;;;1.30;99.90;;;;;;5014585;28;20173;-75
2024/01/12 01:40:11;;;;;;;1999.90;999.90;;;0.80;99.90;;;;;;5014525;28;20165;-75
2024/01/12 01:42:37;;;;;;;1999.90;999.90;;;0.70;99.90;;;;;;5014505;28;20168;-75
2024/01/12 01:45:02;;;;;;;1999.90;999.90;;;0.70;99.90;;;;;;5014135;28;20197;-75
2024/01/12 01:47:30;;;;;;;1999.90;999.90;;;0.60;99.90;;;;;;5014389;28;20201;-75
2024/01/12 01:49:56;;;;;;;1999.90;999.90;;;0.70;99.80;;;;;;5014196;28;20272;-75
2024/01/12 01:52:25;;;;;;;1999.90;999.90;;;0.70;99.70;;;;;;5014270;28;20187;-75
2024/01/12 01:54:56;;;;;;;1999.90;999.90;;;0.90;99.40;;;;;;5013846;28;20195;-75
2024/01/12 01:57:24;;;;;;;1999.90;999.90;;;0.70;96.10;;;;;;5014575;28;20648;-75
2024/01/12 01:59:50;;;;;;;1999.90;999.90;;;0.60;97.90;;;;;;5014127;28;20559;-75
2024/01/12 02:02:16;;;;;;;1999.90;999.90;;;0.70;98.60;;;;;;5014106;28;20268;-75
2024/01/12 02:04:41;;;;;;;1999.90;999.90;;;0.70;99.90;;;;;;5013695;28;20275;-75
2024/01/12 02:07:07;;;;;;;1999.90;999.90;;;0.70;99.90;;;;;;5013892;28;20169;-75
2024/01/12 02:09:34;;;;;;;1999.90;999.90;;;0.70;99.90;;;;;;5013845;28;20193;-75
2024/01/12 02:12:00;;;;;;;1999.90;999.90;;;0.50;99.90;;;;;;5013781;28;20169;-75
2024/01/12 02:14:25;;;;;;;1999.90;999.90;;;0.70;99.90;;;;;;5013638;28;20672;-75
2024/01/12 02:16:54;;;;;;;1999.90;999.90;;;0.70;99.90;;;;;;5013774;28;20170;-75
2024/01/12 02:19:20;;;;;;;1999.90;999.90;;;0.70;99.90;;;;;;5014040;28;20582;-75
2024/01/12 02:21:45;;;;;;;1999.90;999.90;;;1.90;99.90;;;;;;5012754;28;20209;-75
2024/01/12 02:24:11;;;;;;;1999.90;999.90;;;0.70;99.90;;;;;;5013372;28;20189;-75
2024/01/12 02:26:36;;;;;;;1999.90;999.90;;;0.70;99.90;;;;;;5013598;28;20184;-75
2024/01/12 02:29:03;;;;;;;1999.90;999.90;;;0.70;99.90;;;;;;5013507;28;20165;-75
2024/01/12 02:31:29;;;;;;;1999.90;999.90;;;0.70;99.90;;;;;;5013512;28;20644;-75
2024/01/12 02:33:55;;;;;;;1999.90;999.90;;;0.70;99.90;;;;;;5013022;28;20222;-75
2024/01/12 02:36:24;;;;;;;1999.90;999.90;;;0.80;99.90;;;;;;5012170;28;20177;-75
2024/01/12 02:38:50;;;;;;;1999.90;999.90;;;0.90;99.90;;;;;;5013393;28;20536;-75
2024/01/12 02:41:16;;;;;;;1999.90;999.90;;;0.90;99.90;;;;;;5013320;28;20169;-75
2024/01/12 02:43:41;;;;;;;1999.90;999.90;;;1.00;99.90;;;;;;5013088;28;20480;-75
2024/01/12 02:46:07;;;;;;;1999.90;999.90;;;0.70;99.90;;;;;;5013191;28;20412;-75
2024/01/12 02:48:33;;;;;;;1999.90;999.90;;;0.80;99.90;;;;;;5013240;28;20171;-75
2024/01/12 02:50:58;;;;;;;1999.90;999.90;;;0.90;99.90;;;;;;5013092;28;20851;-75
2024/01/12 02:53:24;;;;;;;1999.90;999.90;;;0.70;99.90;;;;;;5012882;28;20165;-75
2024/01/12 02:55:49;;;;;;;1999.90;999.90;;;0.90;99.90;;;;;;5011748;28;20193;-75
2024/01/12 02:58:15;;;;;;;1999.90;999.90;;;1.00;99.90;;;;;;5013067;28;20169;-75
2024/01/12 03:00:41;;;;;;;1999.90;999.90;;;0.90;99.90;;;;;;5012973;28;20180;-75
2024/01/12 03:03:07;;;;;;;1999.90;999.90;;;0.00;99.90;;;;;;5012911;28;20263;-75
2024/01/12 03:05:33;;;;;;;1999.90;999.90;;;1.00;99.90;;;;;;5012590;28;20276;-75
2024/01/12 03:07:59;;;;;;;1999.90;999.90;;;1.00;99.90;;;;;;5012867;28;20180;-75
2024/01/12 03:10:24;;;;;;;1999.90;999.90;;;1.00;99.90;;;;;;5012759;28;20205;-75
2024/01/12 03:12:50;;;;;;;1999.90;999.90;;;1.40;99.90;;;;;;5012788;28;20173;-75
2024/01/12 03:15:16;;;;;;;1999.90;999.90;;;1.10;99.90;;;;;;5012469;28;20185;-75
2024/01/12 03:17:41;;;;;;;1999.90;999.90;;;1.20;99.90;;;;;;5012693;28;20180;-75
2024/01/12 03:20:08;;;;;;;1999.90;999.90;;;1.20;99.90;;;;;;5012740;28;20277;-75
2024/01/12 03:22:34;;;;;;;1999.90;999.90;;;1.10;99.90;;;;;;5012656;28;20169;-75
2024/01/12 03:25:00;;;;;;;1999.90;999.90;;;1.30;99.90;;;;;;5012235;28;20192;-75
2024/01/12 03:27:27;;;;;;;1999.90;999.90;;;1.20;99.90;;;;;;5012620;28;20169;-75
2024/01/12 03:29:52;;;;;;;1999.90;999.90;;;1.40;99.90;;;;;;5012383;28;20200;-75
2024/01/12 03:32:19;;;;;;;1999.90;999.90;;;1.40;99.90;;;;;;5012489;28;20211;-75
2024/01/12 03:34:44;;;;;;;1999.90;999.90;;;1.30;99.90;;;;;;5011817;28;20200;-75
2024/01/12 03:37:10;;;;;;;1999.90;999.90;;;1.40;99.90;;;;;;5012426;28;20168;-75
2024/01/12 03:39:35;;;;;;;1999.90;999.90;;;1.80;99.90;;;;;;5012367;28;20252;-75
2024/01/12 03:42:01;;;;;;;1999.90;999.90;;;1.50;99.90;;;;;;5012311;28;20177;-75
2024/01/12 03:44:26;;;;;;;1999.90;999.90;;;1.60;99.90;;;;;;5012023;28;20567;-75
2024/01/12 03:46:52;;;;;;;1999.90;999.90;;;1.50;99.90;;;;;;5012312;28;20287;-75
2024/01/12 03:49:18;;;;;;;1999.90;999.90;;;1.70;99.90;;;;;;5012224;28;20671;-75
2024/01/12 03:51:47;;;;;;;1999.90;999.90;;;1.50;99.90;;;;;;5012298;28;20710;-75
2024/01/12 03:54:12;;;;;;;1999.90;999.90;;;1.60;99.90;;;;;;5011886;28;20559;-75
2024/01/12 03:56:38;;;;;;;1999.90;999.90;;;1.50;99.90;;;;;;5012182;28;20357;-75
2024/01/12 03:59:03;;;;;;;1999.90;999.90;;;1.40;99.90;;;;;;5012128;28;20533;-75
2024/01/12 04:01:29;;;;;;;1999.90;999.90;;;1.60;99.90;;;;;;5012125;28;20165;-75
2024/01/12 04:03:55;;;;;;;1999.90;999.90;;;1.70;99.90;;;;;;5011860;28;20957;-75
2024/01/12 04:06:20;;;;;;;1999.90;999.90;;;1.50;99.90;;;;;;5012094;28;20175;-75
2024/01/12 04:08:46;;;;;;;1999.90;999.90;;;1.40;99.90;;;;;;5012053;28;20175;-75
2024/01/12 04:11:21;;;;;;;1999.90;999.90;;;1.40;99.90;;;;;;5011960;28;20197;-75
2024/01/12 04:13:46;;;;;;;1999.90;999.90;;;1.50;99.90;;;;;;5011741;28;20187;-75
2024/01/12 04:16:12;;;;;;;1999.90;999.90;;;;;;;;;;5012000;28;20169;-75
2024/01/12 04:18:39;;;;;;;1999.90;999.90;;;1.40;99.90;;;;;;5012042;28;20176;-75
2024/01/12 04:21:05;;;;;;;1999.90;999.90;;;1.50;99.90;;;;;;5012034;28;20458;-75
2024/01/12 04:23:30;;;;;;;1999.90;999.90;;;1.10;99.90;;;;;;5011687;28;20177;-75
2024/01/12 04:25:56;;;;;;;1999.90;999.90;;;1.40;99.90;;;;;;5011913;28;20193;-75
2024/01/12 04:28:22;;;;;;;1999.90;999.90;;;1.40;99.90;;;;;;5011869;28;20197;-75
2024/01/12 04:30:47;;;;;;;1999.90;999.90;;;1.60;99.90;;;;;;5011918;28;20559;-75
2024/01/12 04:33:14;;;;;;;1999.90;999.90;;;;;;;;;;5011801;28;20223;-75
2024/01/12 04:35:40;;;;;;;1999.90;999.90;;;1.20;99.90;;;;;;5011551;28;20184;-75
2024/01/12 04:38:06;;;;;;;1999.90;999.90;;;1.40;99.90;;;;;;5011731;28;20524;-75
2024/01/12 04:40:31;;;;;;;1999.90;999.90;;;1.30;99.90;;;;;;5011764;28;20671;-75
2024/01/12 04:42:57;;;;;;;1999.90;999.90;;;1.40;99.90;;;;;;5011877;28;21025;-75
2024/01/12 04:45:23;;;;;;;1999.90;999.90;;;1.50;99.90;;;;;;5012602;28;20185;-75
2024/01/12 04:47:48;;;;;;;1999.90;999.90;;;1.50;99.90;;;;;;5014260;28;20411;-75
2024/01/12 04:50:14;;;;;;;1999.90;999.90;;;1.70;99.90;;;;;;5015404;28;20196;-75
2024/01/12 04:52:39;;;;;;;1999.90;999.90;;;3.10;99.90;;;;;;5015408;28;20161;-75
2024/01/12 04:55:05;;;;;;;1999.90;999.90;;;1.50;99.90;;;;;;5015058;28;20184;-75
2024/01/12 04:57:31;;;;;;;1999.90;999.90;;;1.30;99.90;;;;;;5015279;28;20172;-75
2024/01/12 04:59:56;;;;;;;1999.90;999.90;;;1.30;99.90;;;;;;5015284;28;20165;-75
2024/01/12 05:02:22;;;;;;;1999.90;999.90;;;1.30;99.90;;;;;;5015151;28;20173;-75
2024/01/12 05:04:47;;;;;;;1999.90;999.90;;;1.30;99.90;;;;;;5014860;28;20251;-75
2024/01/12 05:07:13;;;;;;;1999.90;999.90;;;1.20;99.90;;;;;;5015064;28;20176;-75
2024/01/12 05:09:38;;;;;;;1999.90;999.90;;;1.20;99.90;;;;;;5015030;28;20208;-75
2024/01/12 05:12:04;;;;;;;1999.90;999.90;;;1.40;99.90;;;;;;5014999;28;20227;-75
2024/01/12 05:14:32;;;;;;;1999.90;999.90;;;1.40;99.90;;;;;;5014733;28;20260;-75
2024/01/12 05:16:57;;;;;;;1999.90;999.90;;;1.40;99.90;;;;;;5014952;28;20498;-75
2024/01/12 05:19:23;;;;;;;1999.90;999.90;;;1.50;99.90;;;;;;5014936;28;20260;-75
2024/01/12 05:21:49;;;;;;;1999.90;999.90;;;1.60;99.90;;;;;;5014846;28;20184;-75
2024/01/12 05:24:15;;;;;;;1999.90;999.90;;;1.40;99.90;;;;;;5014498;28;20216;-75
2024/01/12 05:26:41;;;;;;;1999.90;999.90;;;1.60;99.90;;;;;;5014647;28;20169;-75
2024/01/12 05:29:08;;;;;;;1999.90;999.90;;;1.60;99.90;;;;;;5014611;28;20319;-75
2024/01/12 05:31:34;;;;;;;1999.90;999.90;;;1.40;99.90;;;;;;5014717;28;20531;-75
2024/01/12 05:34:00;;;;;;;1999.90;999.90;;;1.30;99.90;;;;;;5014190;28;20212;-75
2024/01/12 05:36:25;;;;;;;1999.90;999.90;;;1.60;99.90;;;;;;5014761;28;20161;-75
2024/01/12 05:38:51;;;;;;;1999.90;999.90;;;1.40;99.90;;;;;;5014560;28;20249;-75
2024/01/12 05:41:16;;;;;;;1999.90;999.90;;;1.50;99.90;;;;;;5014549;28;20169;-75
2024/01/12 05:43:42;;;;;;;1999.90;999.90;;;1.50;99.90;;;;;;5014193;28;20197;-75
2024/01/12 05:46:07;;;;;;;1999.90;999.90;;;1.60;99.90;;;;;;5014356;28;20180;-75
2024/01/12 05:48:34;;;;;;;1999.90;999.90;;;1.60;99.90;;;;;;5014432;28;20169;-75
2024/01/12 05:51:00;;;;;;;1999.90;999.90;;;1.90;99.90;;;;;;5014196;28;20560;-75
2024/01/12 05:53:26;;;;;;;1999.90;999.90;;;;;;;;;;5014024;28;20165;-75
2024/01/12 05:55:52;;;;;;;1999.90;999.90;;;1.50;99.90;;;;;;5014040;28;20415;-75
2024/01/12 05:58:19;;;;;;;1999.90;999.90;;;1.70;99.90;;;;;;5014272;28;20600;-74
2024/01/12 06:00:45;;;;;;;1999.90;999.90;;;1.70;99.90;;;;;;5014122;28;20656;-74
2024/01/12 06:03:11;;;;;;;1999.90;999.90;;;1.50;99.90;;;;;;5014017;28;20404;-74
2024/01/12 06:05:37;;;;;;;1999.90;999.90;;;1.40;99.90;;;;;;5013724;28;20587;-74
2024/01/12 06:08:04;;;;;;;1999.90;999.90;;;1.50;99.90;;;;;;5013995;28;20180;-74
2024/01/12 06:10:29;;;;;;;1999.90;999.90;;;1.50;99.90;;;;;;5013782;28;20827;-74
2024/01/12 06:12:55;;;;;;;1999.90;999.90;;;1.50;99.90;;;;;;5013859;28;20176;-74
2024/01/12 06:15:21;;;;;;;1999.90;999.90;;;1.50;99.90;;;;;;5013515;28;20639;-74
2024/01/12 06:17:46;;;;;;;1999.90;999.90;;;1.90;99.90;;;;;;5013823;28;20168;-74
2024/01/12 06:20:12;;;;;;;1999.90;999.90;;;1.70;99.90;;;;;;5013725;28;20206;-74
2024/01/12 06:22:37;;;;;;;1999.90;999.90;;;1.50;99.90;;;;;;5013666;28;20540;-75
2024/01/12 06:25:03;;;;;;;1999.90;999.90;;;1.40;99.90;;;;;;5013321;28;20216;-74
2024/01/12 06:27:29;;;;;;;1999.90;999.90;;;1.50;99.90;;;;;;5013615;28;20251;-74
2024/01/12 06:29:54;;;;;;;1999.90;999.90;;;1.60;99.90;;;;;;5013558;28;20451;-75
2024/01/12 06:32:20;;;;;;;1999.90;999.90;;;1.50;99.90;;;;;;5013587;28;20201;-75
2024/01/12 06:34:45;;;;;;;1999.90;999.90;;;1.60;99.90;;;;;;5012992;28;20797;-74
2024/01/12 06:37:11;;;;;;;1999.90;999.90;;;1.70;99.90;;;;;;5013475;28;20157;-75
2024/01/12 06:39:39;;;;;;;1999.90;999.90;;;1.70;99.90;;;;;;5013407;28;20211;-75
2024/01/12 06:42:05;;;;;;;1999.90;999.90;;;1.80;99.90;;;;;;5013460;28;20168;-75
2024/01/12 06:44:30;;;;;;;1999.90;999.90;;;1.70;99.90;;;;;;5013099;28;20424;-75
2024/01/12 06:46:56;;;;;;;1999.90;999.90;;;1.70;99.90;;;;;;5013297;28;20408;-75
2024/01/12 06:49:21;;;;;;;1999.90;999.90;;;1.90;99.90;;;;;;5013124;28;20197;-75
2024/01/12 06:51:47;;;;;;;1999.90;999.90;;;1.70;99.90;;;;;;5013107;28;20188;-74
2024/01/12 06:54:13;;;;;;;1999.90;999.90;;;1.80;99.90;;;;;;5012760;28;20551;-75
2024/01/12 06:56:39;;;;;;;1999.90;999.90;;;1.70;99.90;;;;;;5013236;28;20173;-75
2024/01/12 06:59:05;;;;;;;1999.90;999.90;;;1.90;99.90;;;;;;5013034;28;20160;-75
2024/01/12 07:01:31;;;;;;;1999.90;999.90;;;1.80;99.90;;;;;;5012984;28;20177;-75
2024/01/12 07:03:57;;;;;;;1999.90;999.90;;;1.90;99.90;;;;;;5012729;28;20431;-74
2024/01/12 07:06:22;;;;;;;1999.90;999.90;;;1.90;99.90;;;;;;5012882;28;20911;-75
2024/01/12 07:08:48;;;;;;;1999.90;999.90;;;1.90;99.90;;;;;;5012396;28;20181;-75
2024/01/12 07:11:14;;;;;;;1999.90;999.90;;;1.80;99.90;;;;;;5012704;28;20699;-74
2024/01/12 07:13:39;;;;;;;1999.90;999.90;;;1.80;99.90;;;;;;5012593;28;20189;-74
2024/01/12 07:16:05;;;;;;;1999.90;999.90;;;1.90;99.90;;;;;;5012855;28;20256;-75
2024/01/12 07:18:31;;;;;;;1999.90;999.90;;;1.80;99.90;;;;;;5012739;28;20164;-75
2024/01/12 07:21:02;;;;;;;1999.90;999.90;;;1.70;99.90;;;;;;5012795;28;20169;-75
2024/01/12 07:23:30;;;;;;;1999.90;999.90;;;1.60;99.90;;;;;;5012246;28;20181;-74
2024/01/12 07:25:56;;;;;;;1999.90;999.90;;;1.80;99.90;;;;;;5012599;28;20660;-75
2024/01/12 07:28:22;;;;;;;1999.90;999.90;;;1.70;99.90;;;;;;5011352;28;20181;-75
2024/01/12 07:30:47;;;;;;;1999.90;999.90;;;1.70;99.90;;;;;;5012561;28;20494;-75
2024/01/12 07:33:13;;;;;;;1999.90;999.90;;;1.70;99.90;;;;;;5012477;28;20169;-75
2024/01/12 07:35:39;;;;;;;1999.90;999.90;;;1.60;99.90;;;;;;5012065;28;20204;-75
2024/01/12 07:38:04;;;;;;;1999.90;999.90;;;1.50;99.90;;;;;;5012468;28;20179;-75
2024/01/12 07:40:30;;;;;;;1999.90;999.90;;;1.20;99.90;;;;;;5012444;28;20760;-75
2024/01/12 07:42:55;;;;;;;1999.90;999.90;;;1.40;99.90;;;;;;5012267;28;20184;-74
2024/01/12 07:45:22;;;;;;;1999.90;999.90;;;1.40;99.90;;;;;;5011623;28;20224;-75
2024/01/12 07:47:47;;;;;;;1999.90;999.90;;;1.20;99.90;;;;;;5012142;28;20267;-75
2024/01/12 07:50:13;;;;;;;1999.90;999.90;;;1.30;99.90;;;;;;5012138;28;20287;-75
2024/01/12 07:52:38;;;;;;;1999.90;999.90;;;1.40;99.90;;;;;;5012076;28;20238;-75
2024/01/12 07:55:04;;;;;;;1999.90;999.90;;;1.40;99.90;;;;;;5011185;28;20193;-75
2024/01/12 07:57:30;;;;;;;1999.90;999.90;;;1.30;99.90;;;;;;5012177;28;20648;-75
2024/01/12 07:59:56;;;;;;;1999.90;999.90;;;1.40;99.90;;;;;;5011510;28;20412;-73
2024/01/12 08:02:22;;;;;;;1999.90;999.90;;;1.40;99.90;;;;;;5011342;28;20172;-74
2024/01/12 08:04:48;;;;;;;1999.90;999.90;;;1.30;99.90;;;;;;5011014;28;20567;-74
2024/01/12 08:07:13;;;;;;;1999.90;999.90;;;1.60;99.90;;;;;;5012063;28;20181;-74
2024/01/12 08:09:39;;;;;;;1999.90;999.90;;;1.60;99.90;;;;;;5011997;28;20193;-74
2024/01/12 08:12:05;;;;;;;1999.90;999.90;;;1.40;99.90;;;;;;5012077;28;20168;-74
2024/01/12 08:14:30;;;;;;;1999.90;999.90;;;1.30;99.90;;;;;;5011839;28;20193;-74
2024/01/12 08:16:56;;;;;;;1999.90;999.90;;;3.10;99.90;;;;;;5011938;28;20590;-74
2024/01/12 08:19:21;;;;;;;1999.90;999.90;;;1.40;99.90;;;;;;5011967;28;20178;-74
2024/01/12 08:21:47;;;;;;;1999.90;999.90;;;1.60;99.90;;;;;;5015531;28;20173;-74
2024/01/12 08:24:12;;;;;;;1999.90;999.90;;;1.40;99.90;;;;;;5015697;28;20193;-74
2024/01/12 08:26:38;;;;;;;1999.90;999.90;;;1.60;99.90;;;;;;5015873;28;20169;-74
2024/01/12 08:29:04;;;;;;;1999.90;999.90;;;1.50;99.90;;;;;;5015839;28;20684;-74
2024/01/12 08:31:29;;;;;;;1999.90;999.90;;;1.60;99.90;;;;;;5015713;28;20894;-74
2024/01/12 08:33:55;;;;;;;1999.90;999.90;;;1.60;99.90;;;;;;5015338;28;20196;-74
2024/01/12 08:36:20;;;;;;;1999.90;999.90;;;1.60;99.90;;;;;;5015631;28;20189;-74
2024/01/12 08:38:46;;;;;;;1999.90;999.90;;;4.20;99.90;;;;;;5015665;28;20173;-74
2024/01/12 08:41:12;;;;;;;1999.90;999.90;;;1.80;99.90;;;;;;5015649;28;20644;-74
2024/01/12 08:43:37;;;;;;;1999.90;999.90;;;1.80;99.90;;;;;;5015303;28;20579;-74
2024/01/12 08:46:03;;;;;;;1999.90;999.90;;;1.80;99.90;;;;;;5015491;28;20666;-74
2024/01/12 08:48:29;;;;;;;1999.90;999.90;;;1.70;99.90;;;;;;5015447;28;20177;-74
2024/01/12 08:50:55;;;;;;;1999.90;999.90;;;1.80;99.90;;;;;;5015287;28;20203;-74
2024/01/12 08:53:20;;;;;;;1999.90;999.90;;;1.50;99.90;;;;;;5015167;28;20177;-74
2024/01/12 08:55:46;;;;;;;1999.90;999.90;;;1.60;99.90;;;;;;5015479;28;20251;-74
2024/01/12 08:58:11;;;;;;;1999.90;999.90;;;1.90;99.90;;;;;;5014473;28;20251;-74
2024/01/12 09:00:37;;;;;;;1999.90;999.90;;;2.00;99.90;;;;;;5012305;28;20423;-74
2024/01/12 09:03:03;;;;;;;1999.90;999.90;;;1.90;99.90;;;;;;5014786;28;20173;-74
2024/01/12 09:05:29;;;;;;;1999.90;999.90;;;1.80;99.90;;;;;;5012659;28;20251;-74
2024/01/12 09:07:54;;;;;;;1999.90;999.90;;;1.90;99.90;;;;;;5015032;28;20416;-74
2024/01/12 09:10:20;;;;;;;1999.90;999.90;;;1.90;99.90;;;;;;5012043;28;20208;-74
2024/01/12 09:12:45;;;;;;;1999.90;999.90;;;1.50;99.90;;;;;;5012209;28;20173;-74
2024/01/12 09:15:11;;;;;;;1999.90;999.90;;;1.60;99.90;;;;;;5012616;28;20672;-74
2024/01/12 09:17:36;;;;;;;1999.90;999.90;;;1.50;99.90;;;;;;5003116;28;20178;-74
2024/01/12 09:20:02;;;;;;;1999.90;999.90;;;1.60;99.90;;;;;;5012818;28;20706;-74
2024/01/12 09:22:28;;;;;;;1999.90;999.90;;;1.40;99.90;;;;;;5008834;28;20182;-74
2024/01/12 09:24:54;;;;;;;1999.90;999.90;;;1.40;99.90;;;;;;5011324;28;20428;-74
2024/01/12 09:27:19;;;;;;;1999.90;999.90;;;1.20;99.90;;;;;;5015050;28;20687;-74
2024/01/12 09:29:45;;;;;;;1999.90;999.90;;;1.30;99.90;;;;;;5014646;28;20452;-74
2024/01/12 09:32:10;;;;;;;1999.90;999.90;;;1.20;99.90;;;;;;5014387;28;20632;-74
2024/01/12 09:34:36;;;;;;;1999.90;999.90;;;1.10;99.90;;;;;;5014425;28;20201;-74
2024/01/12 09:37:02;;;;;;;1999.90;999.90;;;1.00;99.90;;;;;;5014951;28;20172;-74
2024/01/12 09:39:27;;;;;;;1999.90;999.90;;;1.00;99.90;;;;;;5014587;28;20224;-74
2024/01/12 09:42:04;;;;;;;1999.90;999.90;;;1.00;99.90;;;;;;5014635;28;20222;-74
2024/01/12 09:44:36;;;;;;;1999.90;999.90;;;0.90;99.90;;;;;;5014234;28;20576;-74
2024/01/12 09:47:02;;;;;;;1999.90;999.90;;;1.10;99.90;;;;;;5014777;28;20157;-74
2024/01/12 09:49:29;;;;;;;1999.90;999.90;;;1.00;99.90;;;;;;5014294;28;20360;-74
2024/01/12 09:52:01;;;;;;;1999.90;999.90;;;1.10;99.90;;;;;;5014362;28;20165;-74
2024/01/12 09:54:27;;;;;;;1999.90;999.90;;;1.20;99.90;;;;;;5004402;28;20198;-74
2024/01/12 09:56:53;;;;;;;1999.90;999.90;;;1.20;99.90;;;;;;5010549;28;20181;-74
2024/01/12 09:59:22;;;;;;;1999.90;999.90;;;1.20;99.90;;;;;;5014210;28;20648;-74
2024/01/12 10:01:48;;;;;;;1999.90;999.90;;;1.10;99.90;;;;;;5014137;28;20494;-74
2024/01/12 10:04:14;;;;;;;1999.90;999.90;;;1.20;99.90;;;;;;5013897;28;20185;-74
2024/01/12 10:06:40;;;;;;;1999.90;999.90;;;1.10;99.90;;;;;;5010329;28;20239;-77
2024/01/12 10:09:06;;;;;;;1999.90;999.90;;;1.00;99.90;;;;;;5008083;28;20184;-75
2024/01/12 10:11:32;;;;;;;1999.90;999.90;;;1.00;99.90;;;;;;5009390;28;20668;-75
2024/01/12 10:13:58;;;;;;;1999.90;999.90;;;1.00;99.90;;;;;;5008910;28;20201;-75
2024/01/12 10:16:28;;;;;;;1999.90;999.90;;;1.00;99.90;;;;;;5013745;28;20173;-75
2024/01/12 10:18:58;;;;;;;1999.90;999.90;;;1.10;99.90;;;;;;5013771;28;20184;-75
2024/01/12 10:21:25;;;;;;;1999.90;999.90;;;1.00;99.90;;;;;;5010456;28;20248;-75
2024/01/12 10:24:06;;;;;;;1999.90;999.90;;;1.00;99.90;;;;;;5012489;28;20216;-75
2024/01/12 10:26:31;;;;;;;1999.90;999.90;;;0.80;99.90;;;;;;5013272;28;20567;-74
2024/01/12 10:29:06;;;;;;;1999.90;999.90;;;1.00;99.90;;;;;;5013052;28;20188;-74
2024/01/12 10:31:39;;;;;;;1999.90;999.90;;;1.00;99.90;;;;;;5013344;28;20789;-75
2024/01/12 10:34:08;;;;;;;1999.90;999.90;;;1.10;99.90;;;;;;5012376;28;20217;-76
2024/01/12 10:36:36;;;;;;;1999.90;999.90;;;1.10;99.90;;;;;;5012844;28;20165;-75
2024/01/12 10:39:03;;;;;;;1999.90;999.90;;;1.10;99.90;;;;;;5013040;28;20169;-75
2024/01/12 10:41:32;;;;;;;1999.90;999.90;;;1.50;99.90;;;;;;5013168;28;20173;-75
2024/01/12 10:44:03;;;;;;;1999.90;999.90;;;1.10;99.90;;;;;;5011412;28;20193;-75
2024/01/12 10:46:36;;;;;;;1999.90;999.90;;;1.10;99.90;;;;;;5012894;28;20169;-75
2024/01/12 10:49:16;;;;;;;1999.90;999.90;;;1.00;99.90;;;;;;5012967;28;20177;-75
2024/01/12 10:52:16;;;;;;;1999.90;999.90;;;1.00;99.90;;;;;;5010153;28;20524;-75
2024/01/12 10:55:07;;;;;;;1999.90;999.90;;;1.00;99.90;;;;;;5010885;28;20200;-75
2024/01/12 10:57:33;;;;;;;1999.90;999.90;;;1.00;99.90;;;;;;4992699;28;20193;-75
2024/01/12 10:59:59;;;;;;;1999.90;999.90;;;1.10;99.90;;;;;;4993036;28;20181;-75
2024/01/12 11:02:26;;;;;;;1999.90;999.90;;;1.00;99.90;;;;;;5006284;28;20169;-75
2024/01/12 11:04:53;;;;;;;1999.90;999.90;;;1.10;99.90;;;;;;5011786;28;20423;-75
2024/01/12 11:07:18;;;;;;;1999.90;999.90;;;1.10;99.90;;;;;;5012642;28;20197;-75
2024/01/12 11:09:44;;;;;;;1999.90;999.90;;;1.10;99.90;;;;;;5012483;28;20251;-75
2024/01/12 11:12:25;;;;;;;1999.90;999.90;;;1.10;99.90;;;;;;5012185;28;20584;-75
2024/01/12 11:14:51;;;;;;;1999.90;999.90;;;1.00;99.90;;;;;;5011351;28;20243;-74
2024/01/12 11:17:17;;;;;;;1999.90;999.90;;;1.00;99.90;;;;;;5010830;28;20169;-75
2024/01/12 11:19:42;;;;;;;1999.90;999.90;;;1.10;99.90;;;;;;5008183;28;20950;-75
2024/01/12 11:22:10;;;;;;;1999.90;999.90;;;1.60;99.90;;;;;;5012234;28;20235;-75
2024/01/12 11:24:37;;;;;;;1999.90;999.90;;;1.20;99.90;;;;;;5012023;28;20243;-75
2024/01/12 11:27:04;;;;;;;1999.90;999.90;;;1.20;99.90;;;;;;5011731;28;20173;-75
2024/01/12 11:29:31;;;;;;;1999.90;999.90;;;1.00;99.90;;;;;;5011109;28;20657;-75
2024/01/12 11:32:01;;;;;;;1999.90;999.90;;;1.20;99.90;;;;;;5012391;28;20177;-75
2024/01/12 11:34:34;;;;;;;1999.90;999.90;;;1.30;99.90;;;;;;5010690;28;20287;-75
2024/01/12 11:37:00;;;;;;;1999.90;999.90;;;1.10;99.90;;;;;;5031444;23;20221;-71
2024/01/12 11:39:26;;;;;;;1999.90;999.90;;;1.20;99.90;;;;;;5031892;28;20529;-72
2024/01/12 11:41:58;;;;;;;1999.90;999.90;;;3.20;99.90;;;;;;5024668;28;20173;-72
2024/01/12 11:44:25;;;;;;;1999.90;999.90;;;1.50;99.90;;;;;;5023537;28;20194;-72
2024/01/12 11:46:51;;;;;;;1999.90;999.90;;;1.80;99.90;;;;;;5031791;28;20189;-72
2024/01/12 11:49:18;;;;;;;1999.90;999.90;;;1.30;99.90;;;;;;5029939;28;20640;-72
2024/01/12 11:51:43;;;;;;;1999.90;999.90;;;1.10;99.90;;;;;;5030014;28;20183;-71
2024/01/12 11:54:10;;;;;;;1999.90;999.90;;;1.10;99.90;;;;;;5029987;28;20172;-70
2024/01/12 11:56:35;;;;;;;1999.90;999.90;;;1.10;99.90;;;;;;5031556;28;20513;-71
2024/01/12 11:59:02;;;;;;;1999.90;999.90;;;1.00;99.90;;;;;;5031522;28;20196;-71
2024/01/12 12:01:28;;;;;;;1999.90;999.90;;;1.00;99.90;;;;;;5031831;28;20181;-71
2024/01/12 12:03:53;;;;;;;1999.90;999.90;;;1.10;99.90;;;;;;5031478;28;20916;-71